<< Go Back

No Frills, All Thrills
Date: Mar. 24, 2012
Results by Everal Race Management
Contact for Race Timing

No Frills All Thrills Trail Run 5 Mile
Age Group Results
March 24, 2012

--------------------------------------------------------------------------------
Race Timing Services
--------------------------------------------------------------------------------

Male Open Winners
Total
Place Name City Bib No Age Overall Time Pace
1 Ryan Rau Brighton MI 179 31 1 28:50 5:46/M

Female Open Winners
Total
Place Name City Bib No Age Overall Time Pace
1 Becca Mann Southfield MI 77 22 12 35:26 7:05/M

Male Masters Winners
Total
Place Name City Bib No Age Overall Time Pace
1 Thomas Preiss Waterford MI 164 42 2 30:35 6:07/M

Female Masters Winners
Total
Place Name City Bib No Age Overall Time Pace
1 Karen Toellen Fenton MI 82 43 18 37:01 7:24/M

Female 14 & Under
Total
Place Name City Bib No Age Overall Time Pace
1 Tori Tijan South Lyon MI 122 12 46 41:38 8:20/M

Male 20 - 24
Total
Place Name City Bib No Age Overall Time Pace
1 Matt Barylski Ann Arbor MI 133 22 11 35:08 7:02/M
2 Anthony D'Andrea Dearborn MI 106 24 106 48:02 9:36/M
3 Mathew Mau Roseville MI 61 24 170 1:03:40 12:44/M

Female 20 - 24
Total
Place Name City Bib No Age Overall Time Pace
1 Ashley Voeks Detroit MI 63 24 30 38:10 7:38/M
2 Tiffany Stoddard Ypsilanti MI 88 23 45 41:26 8:17/M
3 Pascale Dargis Chicago IL 114 23 66 43:18 8:40/M
4 Justine Ferris Cement City MI 34 20 87 45:22 9:04/M
5 Tauri Rothermel Livonia MI 93 23 88 45:23 9:05/M
6 Katie Frutiger Ann Arbor MI 143 23 140 53:27 10:41/M

Male 25 - 29
Total
Place Name City Bib No Age Overall Time Pace
1 Joe Jankowski Livonia MI 4 29 14 35:50 7:10/M
2 Trevor Francis Troy MI 162 29 29 38:06 7:37/M
3 Darren Mullen 196 28 42 40:30 8:06/M
4 Brandon Banyase Trenton MI 48 27 107 48:17 9:39/M
5 Mark Mau Madison Heights MI 62 26 123 50:46 10:09/M
6 Justin Clifton Temperance MI 156 25 126 50:51 10:10/M
7 Andrew Bates Novi MI 144 26 137 52:51 10:34/M

Female 25 - 29
Total
Place Name City Bib No Age Overall Time Pace
1 Allison Dickie Brighton MI 134 25 53 42:04 8:25/M
2 Nicole Hawk Brighton MI 66 26 71 43:44 8:45/M
3 Melissa Purdy Cement City MI 35 26 93 45:46 9:09/M
4 Kathryn Feistel Dearborn MI 105 26 100 46:43 9:21/M
5 Kelly Dunn Mason MI 155 26 127 50:52 10:10/M
6 Hailey Penzak Canton MI 135 25 142 53:33 10:43/M
7 Angela Wierciak Trenton MI 49 28 156 57:17 11:27/M
8 Stacy Sallen West Bloomfield MI 131 27 165 1:02:07 12:25/M

Male 30 - 34
Total
Place Name City Bib No Age Overall Time Pace
1 Bruce Mayrand Brighton MI 103 33 4 33:14 6:39/M
2 Justin Schott Ann Arbor MI 169 32 13 35:43 7:09/M
3 James Rutherford Milford MI 157 31 22 37:21 7:28/M
4 Randy Moroschan Shelby Twp. MI 14 33 56 42:22 8:28/M
5 Adam Droelle Redford MI 58 31 84 45:09 9:02/M
6 Brian Beckley Brighton MI 145 32 92 45:40 9:08/M
7 Phillip Grose Brighton MI 23 33 110 48:30 9:42/M

Female 30 - 34
Total
Place Name City Bib No Age Overall Time Pace
1 Katy Senne Pinckney MI 160 31 21 37:20 7:28/M
2 Ryanne Moroschan Shelby Twp. MI 15 34 43 40:49 8:10/M
3 Lindsay Dickie Ann Arbor MI 138 30 78 44:30 8:54/M
4 Sharon Terlep Royal Oak MI 170 33 101 46:50 9:22/M
5 Malakeh Musheinesh Dearborn MI 137 33 103 47:13 9:27/M
6 Sarah Kruger Royal Oak MI 174 31 116 49:22 9:52/M
7 Jessica Arkwright Ypsilanti MI 37 31 148 54:47 10:57/M
8 Lynne Frank Tecumseh MI 75 32 150 56:27 11:17/M
9 Erin Crandall Dearborn MI 83 30 166 1:02:07 12:25/M
10 Lindsay Harris Howell MI 192 30 168 1:02:55 12:35/M
11 Angela Bookout Ann Arbor MI 38 32 173 1:06:11 13:14/M

Male 35 - 39
Total
Place Name City Bib No Age Overall Time Pace
1 Max Finkbeiner Whitmore Lake MI 180 37 3 32:41 6:32/M
2 Joshua Scheels South Lyon MI 128 37 6 33:25 6:41/M
3 The Hellion Dearborn Heights M 148 39 8 34:30 6:54/M
4 Jon Kramer Brighton MI 185 38 25 37:57 7:35/M
5 Gavin Smtih Fenton MI 147 39 28 38:04 7:37/M
6 Shawn Penzak Canton MI 136 38 49 41:48 8:22/M
7 Brian Lassaline Canton MI 52 38 50 41:54 8:23/M
8 Michael Shinko 195 35 60 42:58 8:36/M
9 Matthew Dalley Plymouth MI 41 36 68 43:22 8:40/M
10 Michael Dorrington Brighton MI 111 36 75 44:01 8:48/M
11 Desmond Weaver Whitmore Lake MI 140 38 99 46:31 9:18/M
12 Kevin Ryszka 191 39 138 53:01 10:36/M
13 Michael Pelletier Highland MI 32 37 158 57:58 11:36/M

Female 35 - 39
Total
Place Name City Bib No Age Overall Time Pace
1 Mel Ream Canton MI 42 38 38 39:32 7:54/M
2 Nadine Dorrington Brighton MI 112 36 61 42:59 8:36/M
3 Monica Styles Dearborn MI 55 35 62 42:59 8:36/M
4 Karleen Kudej Brighton MI 151 35 73 43:53 8:47/M
5 Lisa Wells Lapeer MI 91 38 104 47:17 9:27/M
6 Nina Sumner-Klann Howell MI 116 37 111 48:34 9:43/M
7 Nicole Droelle Redford MI 57 35 113 48:43 9:45/M
8 Dawn Kwiatkowski White Lake MI 132 37 121 50:03 10:01/M
9 Linda Miller Tecumseh MI 129 39 124 50:47 10:09/M
10 Maija George Grosse Pointe Farms 95 39 128 50:52 10:10/M
11 Tracie Straub Stockbrige MI 64 38 132 52:00 10:24/M
12 Molly Pulka Fenton MI 123 39 144 53:58 10:48/M
13 Cyndi Montgomery Holt MI 101 39 146 54:24 10:53/M
14 Emily Perryman Ann Arbor MI 36 38 147 54:45 10:57/M

Male 40 - 44
Total
Place Name City Bib No Age Overall Time Pace
1 Matt Stuk Pinckney MI 33 43 7 33:29 6:42/M
2 Tom McHugh Brighton MI 182 40 24 37:44 7:33/M
3 Mahesh Cheerla Howell MI 190 42 48 41:48 8:22/M
4 Karl Barr Ypsilanti MI 177 41 57 42:43 8:33/M
5 Charles Senne Pinckney MI 54 43 72 43:49 8:46/M
6 John McMullen Fowlerville MI 27 40 76 44:07 8:49/M
7 Tim Prendergast Tecumseh MI 17 42 77 44:13 8:51/M
8 Erick Dillman Novi MI 186 44 80 44:58 9:00/M
9 Darin Miller Tecumseh MI 86 40 81 44:59 9:00/M
10 Phillip Kozlowski Canton MI 167 41 82 45:00 9:00/M
11 Steve Novicki New Boston MI 176 40 83 45:04 9:01/M
12 Marc Olson Chelsea MI 97 42 86 45:15 9:03/M
13 Matthew Glaza Royal Oak MI 183 41 97 46:25 9:17/M
14 James Webster Shelby MI 46 41 102 47:07 9:25/M
15 Richard Roethler Milford MI 3 42 105 48:01 9:36/M
16 Michael Haewski Sterling Heights M 141 43 114 48:43 9:45/M
17 Randy Gordon Lake Stanton IN 159 43 161 59:16 11:51/M
18 John Clark Pinckney MI 98 42 164 1:02:03 12:25/M
19 John Schlieper Rochester Hills MI 51 44 171 1:04:39 12:56/M
20 Johnell White Livonia MI 18 44 177 1:24:36 16:55/M

Female 40 - 44
Total
Place Name City Bib No Age Overall Time Pace
1 Danie Matusik Chelsea MI 125 40 34 38:42 7:44/M
2 Stephanie Beckhorn Okemos MI 26 41 52 41:58 8:24/M
3 Karin Richardson Howell MI 115 44 59 42:46 8:33/M
4 Denise Dashner Temperance MI 1 41 63 43:03 8:37/M
5 Dawn Smith Novi MI 187 44 115 48:46 9:45/M
6 Shelli Borich Brighton MI 102 40 117 49:24 9:53/M
7 Leslie Shanlian Howell MI 120 41 141 53:31 10:42/M
8 Kimm Michaud Ferndale MI 90 43 145 54:08 10:50/M
9 Annamarie Mondro Pinckney MI 124 43 153 56:45 11:21/M
10 Heather Clark Pinckney MI 99 42 163 1:02:02 12:24/M
11 Heidi Ernst Canton MI 119 40 175 1:12:41 14:32/M

Male 45 - 49
Total
Place Name City Bib No Age Overall Time Pace
1 Jason Woods Pinckney MI 153 45 15 35:59 7:12/M
2 Andy Shmina Brighton MI 68 47 26 37:59 7:36/M
3 James Toth Imlay City MI 175 45 27 38:03 7:37/M
4 Chuck Lee Commerce Twp. MI 181 47 35 38:58 7:48/M
5 Jay Savalle South Lyon MI 126 45 39 39:48 7:58/M
6 Greg Kuras Chelsea MI 25 46 91 45:27 9:05/M
7 Stacey Rose Wixom MI 59 47 118 49:34 9:55/M
8 Mark Mau Roseville MI 60 49 131 51:29 10:18/M
9 Steve Garrison Howell MI 73 46 139 53:20 10:40/M
10 Pat Zuber Madison Heights MI 146 45 160 58:26 11:41/M
11 Marc Cuddie Grass Lake MI 118 48 162 1:00:11 12:02/M

Female 45 - 49
Total
Place Name City Bib No Age Overall Time Pace
1 Carol Woods Pinckney MI 154 47 32 38:34 7:43/M
2 Genevieve Dargis Ann Arbor MI 113 49 67 43:19 8:40/M
3 Kathleen Erz St. Clair Shores M 72 47 70 43:29 8:42/M
4 Brigid Mulroy Kahn Milford MI 89 46 74 43:56 8:47/M
5 Cheryl Santure Brooklyn MI 9 49 85 45:12 9:02/M
6 Terri Mezel Howell MI 188 46 112 48:40 9:44/M
7 Lisa Tewel Brighton MI 80 49 130 51:27 10:17/M
8 Vicky Vulaj Brighton MI 109 46 134 52:17 10:27/M
9 Lisa Shmina Brighton MI 67 46 152 56:44 11:21/M
10 Kris Harris Brighton MI 47 47 157 57:26 11:29/M
11 Dawn Cuddie Grass Lake MI 117 47 174 1:12:40 14:32/M
12 Lisa McElroy-White Livonia MI 19 45 178 1:24:36 16:55/M

Male 50 - 54
Total
Place Name City Bib No Age Overall Time Pace
1 Todd Kelly Troy MI 165 50 9 34:48 6:58/M
2 Jeff Jackson Ann Arbor MI 107 50 16 36:07 7:13/M
3 Roine Anderson 172 51 17 36:19 7:16/M
4 Billy Tanner Howell MI 161 50 19 37:05 7:25/M
5 Roy Pearsall Highland MI 22 50 20 37:11 7:26/M
6 Ray Jeffery Highland MI 20 52 23 37:31 7:30/M
7 Jeffrey Lassaline Ann Arbor MI 53 52 31 38:14 7:39/M
8 Dean Johnson Plymouth MI 21 50 33 38:38 7:44/M
9 Dennis White Washington MI 171 51 41 40:16 8:03/M
10 Barney Judge Ann Arbor MI 92 53 47 41:38 8:20/M
11 Jeff Kerr Belleville MI 168 53 54 42:07 8:25/M
12 Brian Bracy Grass Lake MI 189 53 55 42:17 8:27/M
13 Kevin Johnston Milford MI 87 54 65 43:16 8:39/M
14 Damingo Valadez Temperance MI 2 52 79 44:33 8:55/M
15 Marty Lillystone Royal Oak MI 152 51 89 45:24 9:05/M
16 Jim Carlo Fenton MI 130 51 98 46:28 9:18/M
17 Harold Akers Ferndale MI 96 52 129 51:01 10:12/M
18 David Spivey Northville MI 139 53 136 52:51 10:34/M

Female 50 - 54
Total
Place Name City Bib No Age Overall Time Pace
1 Sandy Smith Davisburg MI 142 52 51 41:56 8:23/M
2 Mary Pope Pinckney MI 84 53 95 46:17 9:15/M
3 Jodi Baron Haslett MI 178 50 125 50:48 10:10/M
4 Polly Rothermel Livonia MI 8 54 133 52:12 10:26/M
5 Terri Grady Okemos MI 56 52 143 53:56 10:47/M

Male 55 - 59
Total
Place Name City Bib No Age Overall Time Pace
1 Phil French Howell MI 166 55 10 34:51 6:58/M
2 Marvin Guitar Harrison Township 11 55 36 39:10 7:50/M
3 Green Hornet Canton MI 158 55 37 39:25 7:53/M
4 Rick Clark Clarkston MI 100 57 40 39:50 7:58/M
5 Robin Pearce New Hudson MI 173 58 69 43:25 8:41/M
6 Bob Rothermel Livonia MI 7 55 90 45:26 9:05/M
7 James Debene Bloomfield Twp. MI 24 57 108 48:29 9:42/M
8 Eduardo Sibils Kentwood MI 71 56 109 48:29 9:42/M
9 Tim Stallard Dandridge TN 194 57 176 1:23:19 16:40/M

Female 55 - 59
Total
Place Name City Bib No Age Overall Time Pace
1 Jody Lindell Corunna MI 79 58 96 46:20 9:16/M
2 Debbie Wiley Howell MI 108 55 120 49:49 9:58/M
3 Diane Patton Belleville MI 150 59 122 50:12 10:02/M
4 Kathy Rogers Brighton MI 110 56 149 56:13 11:15/M

Male 60 & Over
Total
Place Name City Bib No Age Overall Time Pace
1 Tony Hubbarth Brighton MI 16 62 5 33:18 6:40/M
2 Brad Borgeson Brighton MI 121 60 44 41:24 8:17/M
3 James Patton Belleville MI 149 65 58 42:44 8:33/M
4 Tom Wascha Burton MI 163 68 64 43:08 8:38/M
5 Michael Curtis Swartz Creek MI 12 62 94 45:51 9:10/M
6 Myron Sedman Beverly Hills MI 43 61 119 49:38 9:56/M
7 Gary Wilson Ypsilanti MI 5 63 135 52:31 10:30/M
8 John Gialanella Birmingham MI 40 60 151 56:31 11:18/M
9 Richard Weston Birch Run MI 13 70 154 56:49 11:22/M
10 Roger Dunham Howell MI 6 61 159 58:25 11:41/M
11 Richard Porte Dearborn MI 31 60 167 1:02:37 12:31/M

Female 60 & Over
Total
Place Name City Bib No Age Overall Time Pace
1 Terry McLeod Lennon MI 81 65 155 56:52 11:22/M
2 Linda Rowley Rives Junction MI 10 61 169 1:02:56 12:35/M
3 Casgrain Gayle Ypsilanti MI 29 63 172 1:05:25 13:05/M


--------------------------------------------------------------------------------